Time;durP1;ratioP1;P1;durP2;ratioP2;P2;SDS_P1;SDS_P2;PMS_P1;PMS_P2;Temp;Humidity;BMP_temperature;BMP_pressure;BME280_temperature;BME280_humidity;BME280_pressure;Samples;Min_cycle;Max_cycle;Signal;HPM_P1;HPM_P2
2023/10/19 00:01:57;;;;;;;7.63;6.13;;;;;;;;;;2610643;54;20411;-74
2023/10/19 00:04:24;;;;;;;7.90;5.90;;;;;;;;;;2611229;54;20410;-74
2023/10/19 00:06:50;;;;;;;7.93;6.43;;;;;;;;;;2610548;54;20435;-74
2023/10/19 00:09:16;;;;;;;8.60;5.97;;;;;;;;;;2610485;54;21076;-75
2023/10/19 00:11:42;;;;;;;7.20;5.73;;;;;;;;;;2610491;54;20546;-73
2023/10/19 00:14:15;;;;;;;6.77;5.83;;;;;;;;;;2612459;54;20522;-73
2023/10/19 00:16:49;;;;;;;8.03;6.57;;;;;;;;;;2611227;39;20916;-75
2023/10/19 00:19:19;;;;;;;7.67;6.63;;;;;;;;;;2610614;54;20415;-76
2023/10/19 00:21:54;;;;;;;8.03;7.20;;;;;;;;;;2610454;47;20433;-76
2023/10/19 00:24:23;;;;;;;9.83;6.90;;;;;;;;;;2610764;47;20569;-75
2023/10/19 00:26:53;;;;;;;7.80;6.50;;;;;;;;;;2611614;54;20423;-76
2023/10/19 00:29:40;;;;;;;6.93;6.23;;;;;;;;;;2611573;54;20394;-74
2023/10/19 00:32:12;;;;;;;10.47;6.43;;;;;;;;;;2611297;54;20416;-74
2023/10/19 00:34:38;;;;;;;7.17;6.33;;;;;;;;;;2610979;54;20447;-75
2023/10/19 00:37:07;;;;;;;6.43;5.43;;;;;;;;;;2611479;54;20531;-75
2023/10/19 00:39:47;;;;;;;8.17;6.40;;;;;;;;;;2610493;54;20446;-75
2023/10/19 00:42:15;;;;;;;8.23;7.20;;;;;;;;;;2611367;39;20865;-76
2023/10/19 00:44:49;;;;;;;9.17;7.70;;;;;;;;;;2611044;54;20416;-75
2023/10/19 00:47:18;;;;;;;7.23;6.63;;;;;;;;;;2612670;54;20440;-75
2023/10/19 00:49:46;;;;;;;8.00;6.60;;;;;;;;;;2611096;54;20400;-75
2023/10/19 00:52:19;;;;;;;9.40;8.30;;;;;;;;;;2610193;54;20424;-75
2023/10/19 00:57:13;;;;;;;10.17;7.83;;;;;;;;;;2611737;54;21405;-76
2023/10/19 00:59:52;;;;;;;7.70;6.30;;;;;;;;;;2612381;54;20413;-74
2023/10/19 01:02:28;;;;;;;8.33;7.30;;;;;;;;;;2612427;54;20399;-74
2023/10/19 01:05:00;;;;;;;8.43;6.47;;;;;;;;;;2611564;31;20885;-74
2023/10/19 01:09:56;;;;;;;8.07;6.30;;;;;;;;;;2611087;54;20431;-74
2023/10/19 01:15:06;;;;;;;11.20;7.27;;;;;;;;;;2610762;54;20410;-73
2023/10/19 01:17:38;;;;;;;8.73;6.70;;;;;;;;;;2611501;54;20414;-74
2023/10/19 01:20:13;;;;;;;8.07;7.27;;;;;;;;;;2610821;47;20446;-74
2023/10/19 01:22:44;;;;;;;8.33;7.20;;;;;;;;;;2610884;54;20830;-73
2023/10/19 01:25:12;;;;;;;9.40;7.07;;;;;;;;;;2611421;54;20379;-72
2023/10/19 01:27:40;;;;;;;9.80;7.30;;;;;;;;;;2611311;54;20430;-73
2023/10/19 01:30:09;;;;;;;9.37;8.37;;;;;;;;;;2610729;54;20977;-75
2023/10/19 01:32:35;;;;;;;10.70;6.90;;;;;;;;;;2610177;39;20825;-73
2023/10/19 01:35:01;;;;;;;8.57;7.47;;;;;;;;;;2610989;54;20473;-74
2023/10/19 01:37:27;;;;;;;9.30;7.87;;;;;;;;;;2610848;46;20419;-74
2023/10/19 01:39:53;;;;;;;11.50;7.00;;;;;;;;;;2610900;54;21139;-75
2023/10/19 01:42:19;;;;;;;8.63;7.53;;;;;;;;;;2610273;54;20420;-74
2023/10/19 01:44:45;;;;;;;8.43;5.80;;;;;;;;;;2611741;54;21730;-74
2023/10/19 01:47:11;;;;;;;7.83;6.67;;;;;;;;;;2611199;54;22001;-75
2023/10/19 01:49:37;;;;;;;9.63;7.40;;;;;;;;;;2610054;47;20457;-74
2023/10/19 01:52:04;;;;;;;6.47;5.50;;;;;;;;;;2609925;47;20440;-75
2023/10/19 01:54:30;;;;;;;6.40;5.73;;;;;;;;;;2611373;54;20431;-74
2023/10/19 01:56:56;;;;;;;6.63;5.90;;;;;;;;;;2610872;54;20427;-74
2023/10/19 01:59:27;;;;;;;8.37;5.80;;;;;;;;;;2612025;54;20403;-75
2023/10/19 02:01:57;;;;;;;8.17;6.00;;;;;;;;;;2612056;54;20412;-75
2023/10/19 02:04:23;;;;;;;6.53;5.90;;;;;;;;;;2612144;51;20435;-75
2023/10/19 02:06:52;;;;;;;7.10;6.03;;;;;;;;;;2612301;54;20416;-75
2023/10/19 02:09:23;;;;;;;9.50;5.60;;;;;;;;;;2610631;54;20951;-75
2023/10/19 02:11:52;;;;;;;9.33;6.47;;;;;;;;;;2609894;54;20516;-75
2023/10/19 02:14:19;;;;;;;5.70;5.20;;;;;;;;;;2610804;54;20412;-74
2023/10/19 02:16:50;;;;;;;5.83;5.00;;;;;;;;;;2612239;54;20463;-74
2023/10/19 02:19:17;;;;;;;6.90;5.30;;;;;;;;;;2611993;47;21032;-74
2023/10/19 02:21:47;;;;;;;6.90;5.43;;;;;;;;;;2611418;54;20411;-73
2023/10/19 02:24:14;;;;;;;7.30;5.80;;;;;;;;;;2611739;47;20440;-74
2023/10/19 02:26:40;;;;;;;10.30;6.23;;;;;;;;;;2612755;54;20398;-74
2023/10/19 02:29:07;;;;;;;7.70;5.40;;;;;;;;;;2611074;54;20954;-73
2023/10/19 02:31:34;;;;;;;6.23;5.37;;;;;;;;;;2610060;46;20418;-74
2023/10/19 02:34:01;;;;;;;5.00;4.43;;;;;;;;;;2610746;54;20534;-74
2023/10/19 02:36:29;;;;;;;6.40;5.00;;;;;;;;;;2611103;54;20412;-74
2023/10/19 02:39:07;;;;;;;6.10;4.80;;;;;;;;;;2610860;54;20400;-75
2023/10/19 02:41:37;;;;;;;5.30;4.50;;;;;;;;;;2611369;54;20979;-76
2023/10/19 02:46:31;;;;;;;6.57;5.53;;;;;;;;;;2610825;54;20389;-76
2023/10/19 02:49:00;;;;;;;5.87;5.27;;;;;;;;;;2610514;39;20826;-75
2023/10/19 02:51:26;;;;;;;7.73;5.20;;;;;;;;;;2608939;54;20921;-75
2023/10/19 02:53:53;;;;;;;5.60;5.00;;;;;;;;;;2609362;46;20451;-75
2023/10/19 02:56:19;;;;;;;6.40;4.70;;;;;;;;;;2609853;47;20434;-74
2023/10/19 02:58:49;;;;;;;8.27;5.80;;;;;;;;;;2610155;54;20419;-74
2023/10/19 03:01:24;;;;;;;8.20;5.47;;;;;;;;;;2610273;47;20961;-76
2023/10/19 03:03:51;;;;;;;7.83;4.90;;;;;;;;;;2610386;47;20419;-75
2023/10/19 03:06:23;;;;;;;4.97;4.10;;;;;;;;;;2611144;54;20392;-76
2023/10/19 03:08:57;;;;;;;4.40;3.53;;;;;;;;;;2610664;54;20419;-74
2023/10/19 03:11:24;;;;;;;4.73;3.47;;;;;;;;;;2611031;39;20813;-75
2023/10/19 03:13:51;;;;;;;5.10;3.83;;;;;;;;;;2610679;54;20430;-74
2023/10/19 03:16:20;;;;;;;5.60;3.50;;;;;;;;;;2610687;54;20428;-76
2023/10/19 03:18:47;;;;;;;5.23;3.30;;;;;;;;;;2611059;54;20424;-76
2023/10/19 03:21:13;;;;;;;7.03;4.50;;;;;;;;;;2610214;54;20473;-75
2023/10/19 03:23:40;;;;;;;4.90;3.60;;;;;;;;;;2611577;39;21286;-75
2023/10/19 03:28:55;;;;;;;6.13;3.53;;;;;;;;;;2611431;54;20503;-74
2023/10/19 03:31:28;;;;;;;4.23;3.83;;;;;;;;;;2611210;39;20760;-76
2023/10/19 03:33:54;;;;;;;3.60;3.17;;;;;;;;;;2610246;46;20488;-75
2023/10/19 03:36:23;;;;;;;7.57;3.60;;;;;;;;;;2611186;39;20861;-75
2023/10/19 03:38:51;;;;;;;4.43;3.63;;;;;;;;;;2610998;54;20427;-76
2023/10/19 03:41:21;;;;;;;4.93;3.33;;;;;;;;;;2610782;47;20416;-76
2023/10/19 03:43:48;;;;;;;4.90;3.83;;;;;;;;;;2610899;54;20461;-76
2023/10/19 03:46:37;;;;;;;6.50;3.70;;;;;;;;;;2610726;47;20404;-75
2023/10/19 03:49:10;;;;;;;5.10;3.20;;;;;;;;;;2611479;54;20411;-73
2023/10/19 03:51:40;;;;;;;4.10;3.70;;;;;;;;;;2611353;54;20987;-74
2023/10/19 03:54:24;;;;;;;5.10;4.03;;;;;;;;;;2610425;49;20416;-73
2023/10/19 03:56:50;;;;;;;6.47;4.20;;;;;;;;;;2611044;54;20414;-75
2023/10/19 03:59:17;;;;;;;6.73;3.77;;;;;;;;;;2609933;47;20440;-74
2023/10/19 04:01:43;;;;;;;4.03;3.60;;;;;;;;;;2610184;54;20419;-74
2023/10/19 04:04:10;;;;;;;6.30;3.40;;;;;;;;;;2610724;39;21114;-74
2023/10/19 04:06:37;;;;;;;3.47;2.93;;;;;;;;;;2610069;54;20440;-74
2023/10/19 04:09:05;;;;;;;9.10;4.30;;;;;;;;;;2609737;47;21160;-75
2023/10/19 04:11:51;;;;;;;5.40;3.47;;;;;;;;;;2610632;54;20467;-77
2023/10/19 04:14:17;;;;;;;5.40;4.07;;;;;;;;;;2610793;39;20894;-73
2023/10/19 04:16:44;;;;;;;5.93;3.70;;;;;;;;;;2610582;54;21309;-74
2023/10/19 04:19:11;;;;;;;5.90;4.47;;;;;;;;;;2611221;54;20419;-73
2023/10/19 04:21:38;;;;;;;4.10;3.37;;;;;;;;;;2611900;54;20438;-74
2023/10/19 04:24:08;;;;;;;3.43;3.13;;;;;;;;;;2612190;47;20424;-76
2023/10/19 04:26:37;;;;;;;5.00;3.77;;;;;;;;;;2613867;54;20415;-77
2023/10/19 04:29:11;;;;;;;5.90;3.57;;;;;;;;;;2613328;54;20428;-77
2023/10/19 04:31:47;;;;;;;4.63;3.20;;;;;;;;;;2612482;54;20403;-77
2023/10/19 04:34:13;;;;;;;3.87;3.47;;;;;;;;;;2611367;54;20455;-76
2023/10/19 04:36:42;;;;;;;4.23;2.97;;;;;;;;;;2611823;54;21030;-75
2023/10/19 04:39:13;;;;;;;10.13;3.00;;;;;;;;;;2611579;46;20475;-78
2023/10/19 04:41:40;;;;;;;7.43;3.43;;;;;;;;;;2611545;54;20453;-77
2023/10/19 04:44:08;;;;;;;6.10;3.23;;;;;;;;;;2611353;54;20950;-77
2023/10/19 04:46:34;;;;;;;4.83;3.10;;;;;;;;;;2612838;39;20853;-76
2023/10/19 04:49:00;;;;;;;6.00;3.60;;;;;;;;;;2613133;54;20416;-75
2023/10/19 04:51:28;;;;;;;3.53;3.13;;;;;;;;;;2613022;54;20438;-76
2023/10/19 04:53:55;;;;;;;6.40;2.63;;;;;;;;;;2613422;54;20488;-76
2023/10/19 04:56:21;;;;;;;5.00;2.93;;;;;;;;;;2613070;54;20501;-77
2023/10/19 04:58:47;;;;;;;5.77;3.40;;;;;;;;;;2612906;54;21294;-74
2023/10/19 05:01:14;;;;;;;3.90;3.50;;;;;;;;;;2611060;54;20441;-75
2023/10/19 05:03:40;;;;;;;4.50;3.50;;;;;;;;;;2610898;54;20450;-73
2023/10/19 05:06:07;;;;;;;4.53;3.20;;;;;;;;;;2611419;54;20395;-74
2023/10/19 05:08:33;;;;;;;3.43;3.00;;;;;;;;;;2611288;54;20989;-74
2023/10/19 05:10:59;;;;;;;4.07;2.83;;;;;;;;;;2610691;54;20452;-74
2023/10/19 05:13:26;;;;;;;4.43;2.53;;;;;;;;;;2611159;54;20422;-73
2023/10/19 05:15:56;;;;;;;5.33;2.87;;;;;;;;;;2610807;54;20420;-75
2023/10/19 05:18:22;;;;;;;4.23;2.87;;;;;;;;;;2611744;54;20392;-74
2023/10/19 05:20:55;;;;;;;5.13;2.80;;;;;;;;;;2611015;54;20408;-74
2023/10/19 05:23:25;;;;;;;4.00;2.50;;;;;;;;;;2611698;54;20424;-80
2023/10/19 05:25:53;;;;;;;5.50;3.03;;;;;;;;;;2613156;54;20408;-74
2023/10/19 05:28:19;;;;;;;3.90;2.33;;;;;;;;;;2611358;54;20426;-73
2023/10/19 05:30:46;;;;;;;3.50;2.43;;;;;;;;;;2609920;54;20395;-75
2023/10/19 05:33:12;;;;;;;5.17;2.70;;;;;;;;;;2610014;54;20445;-74
2023/10/19 05:35:41;;;;;;;5.37;2.83;;;;;;;;;;2611466;54;20403;-75
2023/10/19 05:38:10;;;;;;;5.23;4.40;;;;;;;;;;2604961;54;20993;-76
2023/10/19 05:40:36;;;;;;;5.77;3.33;;;;;;;;;;2610614;54;20474;-81
2023/10/19 05:43:04;;;;;;;7.07;3.80;;;;;;;;;;2611117;46;20443;-74
2023/10/19 05:45:30;;;;;;;6.50;3.20;;;;;;;;;;2612660;54;20392;-74
2023/10/19 05:48:00;;;;;;;7.37;4.00;;;;;;;;;;2613113;54;20994;-74
2023/10/19 05:50:28;;;;;;;7.37;3.47;;;;;;;;;;2611282;39;20846;-77
2023/10/19 05:52:54;;;;;;;10.00;3.60;;;;;;;;;;2611627;47;21024;-76
2023/10/19 05:55:23;;;;;;;7.03;4.30;;;;;;;;;;2608708;47;20522;-76
2023/10/19 05:57:49;;;;;;;7.47;2.93;;;;;;;;;;2610634;54;20424;-75
2023/10/19 06:00:16;;;;;;;5.40;3.70;;;;;;;;;;2611397;54;20474;-74
2023/10/19 06:02:46;;;;;;;9.50;4.43;;;;;;;;;;2607421;54;20397;-74
2023/10/19 06:05:15;;;;;;;8.93;4.50;;;;;;;;;;2609820;54;20867;-74
2023/10/19 06:07:42;;;;;;;4.57;2.90;;;;;;;;;;2609731;46;20417;-75
2023/10/19 06:10:08;;;;;;;4.97;3.80;;;;;;;;;;2609566;54;20514;-76
2023/10/19 06:12:34;;;;;;;11.43;4.30;;;;;;;;;;2609135;54;20946;-77
2023/10/19 06:15:00;;;;;;;5.77;3.63;;;;;;;;;;2610293;54;20426;-77
2023/10/19 06:17:29;;;;;;;6.30;3.23;;;;;;;;;;2608725;47;20965;-76
2023/10/19 06:19:55;;;;;;;6.93;3.93;;;;;;;;;;2611297;54;20424;-76
2023/10/19 06:22:22;;;;;;;4.73;3.53;;;;;;;;;;2612620;54;20444;-76
2023/10/19 06:24:48;;;;;;;4.60;3.57;;;;;;;;;;2612340;54;20424;-76
2023/10/19 06:27:14;;;;;;;8.13;3.20;;;;;;;;;;2612069;54;20547;-77
2023/10/19 06:29:40;;;;;;;8.80;4.40;;;;;;;;;;2611447;54;20420;-77
2023/10/19 06:32:06;;;;;;;7.03;3.37;;;;;;;;;;2611036;54;20947;-76
2023/10/19 06:34:32;;;;;;;7.27;4.40;;;;;;;;;;2610332;54;20458;-76
2023/10/19 06:36:59;;;;;;;6.23;3.67;;;;;;;;;;2611720;54;20396;-76
2023/10/19 06:39:26;;;;;;;4.53;3.07;;;;;;;;;;2612532;54;20394;-76
2023/10/19 06:41:52;;;;;;;4.00;3.10;;;;;;;;;;2611973;47;20489;-75
2023/10/19 06:44:18;;;;;;;7.53;3.80;;;;;;;;;;2610412;54;20426;-76
2023/10/19 06:46:44;;;;;;;8.03;3.60;;;;;;;;;;2612098;54;20392;-75
2023/10/19 06:49:10;;;;;;;7.87;4.60;;;;;;;;;;2612332;39;20799;-76
2023/10/19 06:51:37;;;;;;;9.07;3.40;;;;;;;;;;2611180;54;20535;-75
2023/10/19 06:54:03;;;;;;;6.00;3.23;;;;;;;;;;2608997;54;20439;-76
2023/10/19 06:56:30;;;;;;;4.33;3.20;;;;;;;;;;2611388;54;20935;-75
2023/10/19 06:58:56;;;;;;;5.60;3.77;;;;;;;;;;2612099;54;20447;-75
2023/10/19 07:01:26;;;;;;;4.83;3.33;;;;;;;;;;2610882;54;21874;-75
2023/10/19 07:03:53;;;;;;;4.33;3.00;;;;;;;;;;2608125;54;20417;-75
2023/10/19 07:06:19;;;;;;;5.20;3.30;;;;;;;;;;2608602;54;20396;-75
2023/10/19 07:08:46;;;;;;;4.00;3.40;;;;;;;;;;2606953;47;20450;-75
2023/10/19 07:11:12;;;;;;;3.70;2.70;;;;;;;;;;2607777;54;20489;-75
2023/10/19 07:13:39;;;;;;;4.30;2.63;;;;;;;;;;2608584;54;20392;-76
2023/10/19 07:16:09;;;;;;;6.33;2.87;;;;;;;;;;2608740;39;20813;-75
2023/10/19 07:18:36;;;;;;;5.77;3.37;;;;;;;;;;2608695;39;20811;-76
2023/10/19 07:21:03;;;;;;;9.60;3.37;;;;;;;;;;2609888;54;20451;-75
2023/10/19 07:23:29;;;;;;;5.33;3.23;;;;;;;;;;2611797;54;20404;-75
2023/10/19 07:26:01;;;;;;;6.53;2.93;;;;;;;;;;2608398;54;20463;-74
2023/10/19 07:28:27;;;;;;;3.70;3.07;;;;;;;;;;2610160;46;20985;-73
2023/10/19 07:30:54;;;;;;;3.87;3.10;;;;;;;;;;2609816;54;20424;-74
2023/10/19 07:33:20;;;;;;;5.33;3.10;;;;;;;;;;2609287;54;20463;-74
2023/10/19 07:35:46;;;;;;;5.27;3.50;;;;;;;;;;2609290;54;20427;-75
2023/10/19 07:38:22;;;;;;;5.30;3.40;;;;;;;;;;2609960;46;20436;-74
2023/10/19 07:40:48;;;;;;;11.03;3.60;;;;;;;;;;2610064;54;21027;-75
2023/10/19 07:43:15;;;;;;;4.13;3.10;;;;;;;;;;2611119;54;20421;-76
2023/10/19 07:45:42;;;;;;;5.10;3.10;;;;;;;;;;2611019;47;20405;-76
2023/10/19 07:48:12;;;;;;;8.80;2.93;;;;;;;;;;2611855;54;21270;-76
2023/10/19 07:50:42;;;;;;;6.77;3.13;;;;;;;;;;2611060;54;20436;-76
2023/10/19 07:53:09;;;;;;;5.23;3.33;;;;;;;;;;2611444;54;20395;-75
2023/10/19 07:55:37;;;;;;;5.70;3.43;;;;;;;;;;2611285;54;20420;-76
2023/10/19 07:58:04;;;;;;;7.33;3.60;;;;;;;;;;2610411;54;20597;-76
2023/10/19 08:00:30;;;;;;;6.70;3.77;;;;;;;;;;2612688;39;20880;-76
2023/10/19 08:02:56;;;;;;;5.90;4.00;;;;;;;;;;2613129;54;21012;-75
2023/10/19 08:05:23;;;;;;;6.30;3.33;;;;;;;;;;2612409;54;20473;-76
2023/10/19 08:07:49;;;;;;;5.03;3.40;;;;;;;;;;2611846;47;20474;-76
2023/10/19 08:10:17;;;;;;;6.97;3.53;;;;;;;;;;2612401;54;20388;-76
2023/10/19 08:12:47;;;;;;;9.93;3.93;;;;;;;;;;2612321;47;20454;-76
2023/10/19 08:15:15;;;;;;;5.90;3.60;;;;;;;;;;2611779;54;20530;-76
2023/10/19 08:17:49;;;;;;;5.27;3.80;;;;;;;;;;2612308;47;20422;-75
2023/10/19 08:20:27;;;;;;;5.43;3.83;;;;;;;;;;2612791;54;20424;-76
2023/10/19 08:22:56;;;;;;;5.47;3.77;;;;;;;;;;2612850;47;20424;-77
2023/10/19 08:25:23;;;;;;;5.63;3.90;;;;;;;;;;2613247;54;21104;-75
2023/10/19 08:27:56;;;;;;;3.97;3.30;;;;;;;;;;2611561;54;20421;-76
2023/10/19 08:30:22;;;;;;;7.47;3.90;;;;;;;;;;2611492;46;20435;-75
2023/10/19 08:32:49;;;;;;;4.40;3.57;;;;;;;;;;2610903;47;20489;-72
2023/10/19 08:35:20;;;;;;;5.57;3.50;;;;;;;;;;2610533;54;20535;-75
2023/10/19 08:37:47;;;;;;;8.53;3.20;;;;;;;;;;2611356;54;20432;-74
2023/10/19 08:40:14;;;;;;;6.83;3.60;;;;;;;;;;2612659;39;20764;-75
2023/10/19 08:42:43;;;;;;;5.13;4.00;;;;;;;;;;2610363;54;20391;-76
2023/10/19 08:45:12;;;;;;;8.10;3.83;;;;;;;;;;2610444;54;20442;-76
2023/10/19 08:47:47;;;;;;;4.67;3.27;;;;;;;;;;2612898;54;20378;-75
2023/10/19 08:50:14;;;;;;;4.70;3.73;;;;;;;;;;2611053;54;20417;-75
2023/10/19 08:52:42;;;;;;;6.47;3.30;;;;;;;;;;2611096;54;20437;-75
2023/10/19 08:55:11;;;;;;;8.27;3.87;;;;;;;;;;2611331;54;20436;-76
2023/10/19 08:57:39;;;;;;;12.77;4.47;;;;;;;;;;2611845;54;20427;-76
2023/10/19 09:00:06;;;;;;;8.53;4.00;;;;;;;;;;2611246;54;21008;-75
2023/10/19 09:02:33;;;;;;;8.63;3.40;;;;;;;;;;2611475;47;20416;-75
2023/10/19 09:04:59;;;;;;;7.67;3.97;;;;;;;;;;2612739;54;20548;-76
2023/10/19 09:07:30;;;;;;;5.53;3.80;;;;;;;;;;2612506;39;20750;-75
2023/10/19 09:09:57;;;;;;;7.07;3.57;;;;;;;;;;2611870;47;20439;-75
2023/10/19 09:12:23;;;;;;;7.00;3.80;;;;;;;;;;2612072;47;20450;-75
2023/10/19 09:14:49;;;;;;;8.43;4.93;;;;;;;;;;2612449;39;20794;-76
2023/10/19 09:17:17;;;;;;;14.73;4.07;;;;;;;;;;2611853;46;20916;-76
2023/10/19 09:19:47;;;;;;;4.33;3.93;;;;;;;;;;2610355;54;20438;-76
2023/10/19 09:22:22;;;;;;;5.33;3.60;;;;;;;;;;2610951;54;20406;-77
2023/10/19 09:24:55;;;;;;;7.43;3.87;;;;;;;;;;2611280;54;20423;-76
2023/10/19 09:27:22;;;;;;;4.80;3.80;;;;;;;;;;2611837;54;20515;-75
2023/10/19 09:29:51;;;;;;;5.83;4.00;;;;;;;;;;2612038;54;20463;-75
2023/10/19 09:32:17;;;;;;;4.10;3.33;;;;;;;;;;2609439;47;20434;-76
2023/10/19 09:34:44;;;;;;;5.60;4.00;;;;;;;;;;2612127;54;20540;-76
2023/10/19 09:37:12;;;;;;;6.33;4.13;;;;;;;;;;2613004;54;20435;-76
2023/10/19 09:39:39;;;;;;;7.37;4.97;;;;;;;;;;2612245;54;20432;-76
2023/10/19 09:42:16;;;;;;;5.40;4.00;;;;;;;;;;2610243;54;20415;-76
2023/10/19 09:44:46;;;;;;;5.33;3.73;;;;;;;;;;2610406;47;20432;-75
2023/10/19 09:47:25;;;;;;;8.70;4.63;;;;;;;;;;2610964;54;20437;-75
2023/10/19 09:49:51;;;;;;;8.03;5.10;;;;;;;;;;2610811;54;20419;-75
2023/10/19 09:52:18;;;;;;;6.73;5.00;;;;;;;;;;2610128;54;20435;-76
2023/10/19 09:54:58;;;;;;;8.63;4.40;;;;;;;;;;2609764;54;20443;-76
2023/10/19 09:57:37;;;;;;;5.23;4.30;;;;;;;;;;2611292;54;20416;-76
2023/10/19 10:00:14;;;;;;;5.80;4.13;;;;;;;;;;2611922;54;20404;-74
2023/10/19 10:02:46;;;;;;;6.00;3.63;;;;;;;;;;2611654;54;20422;-76
2023/10/19 10:05:30;;;;;;;4.60;3.90;;;;;;;;;;2610692;46;20494;-75
2023/10/19 10:08:16;;;;;;;5.63;3.80;;;;;;;;;;2611913;54;20526;-75
2023/10/19 10:10:42;;;;;;;6.50;3.80;;;;;;;;;;2612035;54;20423;-75
2023/10/19 10:13:27;;;;;;;6.73;5.07;;;;;;;;;;2609359;54;20567;-75
2023/10/19 10:15:57;;;;;;;7.03;4.33;;;;;;;;;;2612486;54;20397;-76
2023/10/19 10:18:27;;;;;;;8.27;4.33;;;;;;;;;;2611690;46;20431;-74
2023/10/19 10:21:08;;;;;;;4.77;4.10;;;;;;;;;;2611144;54;20424;-76
2023/10/19 10:23:40;;;;;;;6.63;3.50;;;;;;;;;;2609953;47;20424;-75
2023/10/19 10:26:08;;;;;;;5.63;4.70;;;;;;;;;;2608686;54;20464;-75
2023/10/19 10:28:35;;;;;;;7.00;4.93;;;;;;;;;;2612311;54;20388;-76
2023/10/19 10:31:07;;;;;;;4.50;3.90;;;;;;;;;;2611973;54;20434;-76
2023/10/19 10:34:03;;;;;;;4.77;4.37;;;;;;;;;;2611454;47;20463;-76
2023/10/19 10:36:49;;;;;;;6.90;4.87;;;;;;;;;;2610384;54;20434;-76
2023/10/19 10:39:23;;;;;;;5.03;4.53;;;;;;;;;;2611280;54;20481;-75
2023/10/19 10:41:55;;;;;;;6.60;4.47;;;;;;;;;;2608641;54;20419;-76
2023/10/19 10:44:35;;;;;;;6.83;4.73;;;;;;;;;;2609503;47;20407;-75
2023/10/19 10:47:01;;;;;;;7.27;5.00;;;;;;;;;;2611748;54;20448;-76
2023/10/19 10:49:27;;;;;;;6.03;5.33;;;;;;;;;;2612318;54;20423;-76
2023/10/19 10:51:56;;;;;;;11.47;5.50;;;;;;;;;;2611563;54;20434;-76
2023/10/19 10:54:22;;;;;;;7.57;5.70;;;;;;;;;;2611187;54;20419;-76
2023/10/19 10:56:50;;;;;;;10.83;6.27;;;;;;;;;;2611259;54;20519;-76
2023/10/19 10:59:17;;;;;;;7.20;6.50;;;;;;;;;;2609579;47;20426;-75
2023/10/19 11:01:43;;;;;;;5.57;5.10;;;;;;;;;;2610275;47;20420;-75
2023/10/19 11:04:10;;;;;;;7.90;5.53;;;;;;;;;;2611785;39;20783;-76
2023/10/19 11:06:55;;;;;;;5.60;5.20;;;;;;;;;;2612520;54;20410;-75
2023/10/19 11:09:22;;;;;;;5.73;5.20;;;;;;;;;;2611368;54;20411;-75
2023/10/19 11:11:52;;;;;;;6.43;5.83;;;;;;;;;;2611988;54;20403;-76
2023/10/19 11:14:18;;;;;;;7.33;5.73;;;;;;;;;;2612600;39;20849;-76
2023/10/19 11:16:44;;;;;;;9.50;6.20;;;;;;;;;;2611239;54;20427;-75
2023/10/19 11:19:10;;;;;;;5.80;5.20;;;;;;;;;;2612146;54;20500;-76
2023/10/19 11:21:36;;;;;;;9.87;5.57;;;;;;;;;;2611260;54;20973;-76
2023/10/19 11:24:02;;;;;;;5.73;5.03;;;;;;;;;;2611476;46;20582;-76
2023/10/19 11:26:29;;;;;;;6.33;4.90;;;;;;;;;;2611982;54;20421;-76
2023/10/19 11:28:58;;;;;;;5.30;4.83;;;;;;;;;;2612600;46;20918;-75
2023/10/19 11:31:24;;;;;;;5.63;4.97;;;;;;;;;;2611337;54;20427;-75
2023/10/19 11:34:00;;;;;;;5.83;5.20;;;;;;;;;;2612134;54;20455;-76
2023/10/19 11:36:26;;;;;;;7.30;4.77;;;;;;;;;;2610759;54;20526;-76
2023/10/19 11:38:53;;;;;;;6.73;5.03;;;;;;;;;;2612300;54;20439;-75
2023/10/19 11:41:20;;;;;;;6.03;5.27;;;;;;;;;;2610420;54;20430;-75
2023/10/19 11:43:46;;;;;;;9.53;5.63;;;;;;;;;;2610990;54;20425;-75
2023/10/19 11:46:14;;;;;;;6.43;5.80;;;;;;;;;;2612150;54;20428;-76
2023/10/19 11:48:42;;;;;;;7.13;5.50;;;;;;;;;;2612817;39;20819;-76
2023/10/19 11:51:10;;;;;;;7.43;5.57;;;;;;;;;;2612758;39;20782;-75
2023/10/19 11:53:39;;;;;;;10.13;6.60;;;;;;;;;;2611679;47;20959;-76
2023/10/19 11:56:07;;;;;;;6.90;6.37;;;;;;;;;;2611170;54;20392;-76
2023/10/19 11:58:44;;;;;;;9.10;5.70;;;;;;;;;;2611373;54;20531;-75
2023/10/19 12:01:16;;;;;;;9.23;5.10;;;;;;;;;;2611171;39;20806;-76
2023/10/19 12:03:45;;;;;;;6.67;6.00;;;;;;;;;;2611035;54;21268;-74
2023/10/19 12:06:13;;;;;;;6.87;6.17;;;;;;;;;;2611272;54;20418;-75
2023/10/19 12:08:40;;;;;;;7.03;5.73;;;;;;;;;;2609871;48;20456;-75
2023/10/19 12:11:19;;;;;;;10.30;6.40;;;;;;;;;;2610035;54;21309;-76
2023/10/19 12:13:45;;;;;;;11.27;5.67;;;;;;;;;;2610936;47;20423;-75
2023/10/19 12:16:21;;;;;;;7.10;6.50;;;;;;;;;;2610794;54;20464;-75
2023/10/19 12:18:49;;;;;;;8.17;6.20;;;;;;;;;;2610036;54;20953;-75
2023/10/19 12:21:17;;;;;;;7.30;5.83;;;;;;;;;;2610072;39;20849;-75
2023/10/19 12:23:44;;;;;;;6.00;5.50;;;;;;;;;;2611025;54;20535;-75
2023/10/19 12:26:14;;;;;;;7.07;5.50;;;;;;;;;;2608960;54;20479;-75
2023/10/19 12:28:43;;;;;;;8.27;5.33;;;;;;;;;;2610825;54;21056;-76
2023/10/19 12:31:09;;;;;;;9.90;5.70;;;;;;;;;;2611443;47;20432;-76
2023/10/19 12:33:37;;;;;;;5.97;5.43;;;;;;;;;;2613560;54;20424;-76
2023/10/19 12:36:22;;;;;;;8.20;6.00;;;;;;;;;;2613154;46;20453;-77
2023/10/19 12:38:49;;;;;;;6.50;5.43;;;;;;;;;;2614197;47;20433;-76
2023/10/19 12:41:17;;;;;;;6.53;5.77;;;;;;;;;;2613829;47;20850;-75
2023/10/19 12:43:43;;;;;;;6.50;5.83;;;;;;;;;;2613565;54;20423;-77
2023/10/19 12:46:11;;;;;;;7.30;6.10;;;;;;;;;;2614243;47;20981;-76
2023/10/19 12:48:39;;;;;;;6.10;5.53;;;;;;;;;;2613474;54;20427;-76
2023/10/19 12:51:11;;;;;;;9.43;5.87;;;;;;;;;;2614252;54;20439;-76
2023/10/19 12:53:38;;;;;;;6.47;5.40;;;;;;;;;;2612829;54;20406;-76
2023/10/19 12:56:07;;;;;;;12.10;5.40;;;;;;;;;;2613902;54;20431;-75
2023/10/19 12:58:34;;;;;;;6.53;5.83;;;;;;;;;;2613009;54;20423;-76
2023/10/19 13:01:00;;;;;;;9.23;5.20;;;;;;;;;;2613239;47;21153;-75
2023/10/19 13:03:32;;;;;;;5.50;5.10;;;;;;;;;;2615008;31;20908;-75
2023/10/19 13:06:04;;;;;;;10.53;6.43;;;;;;;;;;2613401;47;20533;-75
2023/10/19 13:08:31;;;;;;;10.03;5.43;;;;;;;;;;2613311;54;20446;-76
2023/10/19 13:10:57;;;;;;;6.00;5.40;;;;;;;;;;2612402;54;20429;-76
2023/10/19 13:13:24;;;;;;;6.27;5.70;;;;;;;;;;2611475;54;20510;-76
2023/10/19 13:15:50;;;;;;;8.00;5.20;;;;;;;;;;2611021;54;20988;-76
2023/10/19 13:18:21;;;;;;;6.23;5.37;;;;;;;;;;2609361;54;20443;-75
2023/10/19 13:20:48;;;;;;;6.77;5.40;;;;;;;;;;2610048;54;20530;-74
2023/10/19 13:23:21;;;;;;;10.43;6.07;;;;;;;;;;2610662;54;20411;-75
2023/10/19 13:25:57;;;;;;;8.43;5.50;;;;;;;;;;2610330;54;20432;-75
2023/10/19 13:28:24;;;;;;;9.43;5.43;;;;;;;;;;2611759;54;20439;-77
2023/10/19 13:30:51;;;;;;;7.70;5.00;;;;;;;;;;2609809;54;20541;-75
2023/10/19 13:33:18;;;;;;;11.87;5.90;;;;;;;;;;2611598;39;20892;-75
2023/10/19 13:35:45;;;;;;;11.40;6.17;;;;;;;;;;2610717;54;20509;-76
2023/10/19 13:38:11;;;;;;;8.70;5.10;;;;;;;;;;2611563;54;21690;-75
2023/10/19 13:40:41;;;;;;;8.07;5.13;;;;;;;;;;2611659;54;21048;-77
2023/10/19 13:43:08;;;;;;;9.03;5.30;;;;;;;;;;2612302;54;20513;-76
2023/10/19 13:45:35;;;;;;;6.00;5.20;;;;;;;;;;2611760;47;20425;-76
2023/10/19 13:48:02;;;;;;;10.63;5.00;;;;;;;;;;2611646;54;20464;-76
2023/10/19 13:50:30;;;;;;;5.00;4.50;;;;;;;;;;2609087;54;20454;-76
2023/10/19 13:52:57;;;;;;;9.77;4.50;;;;;;;;;;2610806;54;20435;-77
2023/10/19 13:55:23;;;;;;;6.50;4.10;;;;;;;;;;2611859;54;20438;-76
2023/10/19 13:57:49;;;;;;;9.40;4.90;;;;;;;;;;2610909;54;20510;-77
2023/10/19 14:00:23;;;;;;;8.57;3.73;;;;;;;;;;2609898;54;20472;-76
2023/10/19 14:02:49;;;;;;;8.03;4.73;;;;;;;;;;2609520;54;20462;-76
2023/10/19 14:05:15;;;;;;;5.93;3.90;;;;;;;;;;2611190;47;20971;-75
2023/10/19 14:07:43;;;;;;;8.00;3.80;;;;;;;;;;2611134;54;20426;-76
2023/10/19 14:10:12;;;;;;;6.97;3.67;;;;;;;;;;2611793;54;20410;-77
2023/10/19 14:12:41;;;;;;;9.73;3.97;;;;;;;;;;2610324;47;20465;-76
2023/10/19 14:15:09;;;;;;;7.10;3.33;;;;;;;;;;2610695;47;20985;-77
2023/10/19 14:17:35;;;;;;;6.97;3.93;;;;;;;;;;2610367;47;21074;-77
2023/10/19 14:20:01;;;;;;;8.97;4.77;;;;;;;;;;2610447;54;20390;-75
2023/10/19 14:22:27;;;;;;;8.63;3.70;;;;;;;;;;2613197;54;20430;-76
2023/10/19 14:24:53;;;;;;;5.63;3.10;;;;;;;;;;2613668;54;20451;-76
2023/10/19 14:27:22;;;;;;;6.97;4.03;;;;;;;;;;2613647;47;20425;-76
2023/10/19 14:29:48;;;;;;;13.40;3.97;;;;;;;;;;2613725;54;20419;-76
2023/10/19 14:32:14;;;;;;;8.60;4.03;;;;;;;;;;2613420;39;20801;-77
2023/10/19 14:34:40;;;;;;;8.57;4.97;;;;;;;;;;2612548;54;20469;-77
2023/10/19 14:37:06;;;;;;;9.40;4.10;;;;;;;;;;2613124;54;20431;-76
2023/10/19 14:39:32;;;;;;;15.40;6.83;;;;;;;;;;2613432;54;20969;-76
2023/10/19 14:42:00;;;;;;;9.03;4.30;;;;;;;;;;2612629;54;20534;-74
2023/10/19 14:44:27;;;;;;;10.83;4.10;;;;;;;;;;2612733;54;20454;-76
2023/10/19 14:46:56;;;;;;;9.80;3.80;;;;;;;;;;2612961;54;20488;-76
2023/10/19 14:49:22;;;;;;;9.20;4.37;;;;;;;;;;2613769;54;20446;-76
2023/10/19 14:51:48;;;;;;;7.83;3.80;;;;;;;;;;2613081;39;20833;-76
2023/10/19 14:54:14;;;;;;;8.80;4.40;;;;;;;;;;2614720;54;20983;-76
2023/10/19 14:56:40;;;;;;;9.77;4.20;;;;;;;;;;2614253;54;20869;-75
2023/10/19 14:59:06;;;;;;;8.20;4.30;;;;;;;;;;2612910;54;20433;-75
2023/10/19 15:01:32;;;;;;;9.43;4.70;;;;;;;;;;2613578;54;21334;-76
2023/10/19 15:03:58;;;;;;;7.13;3.97;;;;;;;;;;2612759;47;20986;-76
2023/10/19 15:06:24;;;;;;;10.97;3.70;;;;;;;;;;2613679;39;20811;-75